Time;durP1;ratioP1;P1;durP2;ratioP2;P2;SDS_P1;SDS_P2;PMS_P1;PMS_P2;Temp;Humidity;BMP_temperature;BMP_pressure;BME280_temperature;BME280_humidity;BME280_pressure;Samples;Min_cycle;Max_cycle;Signal;HPM_P1;HPM_P2
2022/03/06 00:01:28;;;;;;;49.50;44.60;;;;;;;-0.76;65.89;98432.15;105731;1277;22540;-76
2022/03/06 00:03:56;;;;;;;45.00;40.70;;;;;;;-0.76;65.83;98428.20;105745;1278;22564;-76
2022/03/06 00:06:24;;;;;;;46.20;41.70;;;;;;;-0.72;65.84;98429.45;105706;1277;22772;-77
2022/03/06 00:08:52;;;;;;;50.10;45.20;;;;;;;-0.73;65.79;98429.40;105918;1278;22547;-76
2022/03/06 00:11:20;;;;;;;50.90;46.10;;;;;;;-0.75;66.22;98427.79;105686;1277;25433;-77
2022/03/06 00:13:48;;;;;;;55.90;50.60;;;;;;;-0.76;66.15;98428.13;105611;1277;25327;-77
2022/03/06 00:16:16;;;;;;;51.30;46.60;;;;;;;-0.79;66.10;98426.88;105594;1277;22565;-77
2022/03/06 00:18:44;;;;;;;48.00;43.60;;;;;;;-0.82;66.32;98426.04;105581;1278;25369;-76
2022/03/06 00:21:13;;;;;;;49.50;44.90;;;;;;;-0.83;66.46;98421.32;105757;1277;22493;-78
2022/03/06 00:23:41;;;;;;;53.50;48.70;;;;;;;-0.86;66.40;98425.61;105793;1278;22877;-77
2022/03/06 00:26:09;;;;;;;50.90;46.00;;;;;;;-0.92;66.31;98423.28;105636;1277;22694;-77
2022/03/06 00:28:37;;;;;;;52.40;47.50;;;;;;;-0.97;66.39;98416.88;105846;1277;22707;-77
2022/03/06 00:31:06;;;;;;;45.20;40.90;;;;;;;-0.97;66.50;98416.02;105618;1280;22979;-77
2022/03/06 00:33:34;;;;;;;43.30;39.30;;;;;;;-0.94;66.45;98416.66;105919;1277;22895;-79
2022/03/06 00:36:03;;;;;;;47.40;42.80;;;;;;;-0.90;66.61;98416.80;105696;1278;22713;-78
2022/03/06 00:38:31;;;;;;;48.90;44.40;;;;;;;-0.86;66.84;98416.08;105905;1277;22550;-78
2022/03/06 00:40:59;;;;;;;50.20;45.50;;;;;;;-0.85;66.96;98415.92;105882;1277;24281;-77
2022/03/06 00:43:29;;;;;;;53.80;49.10;;;;;;;-0.86;66.86;98423.98;105908;1277;22576;-77
2022/03/06 00:45:57;;;;;;;56.40;50.60;;;;;;;-0.87;66.97;98419.80;105801;1277;26673;-77
2022/03/06 00:48:25;;;;;;;53.90;49.20;;;;;;;-0.89;66.90;98418.30;105816;1277;24566;-77
2022/03/06 00:50:53;;;;;;;48.60;44.30;;;;;;;-0.92;67.06;98420.56;105842;1277;22698;-76
2022/03/06 00:53:21;;;;;;;51.00;46.30;;;;;;;-0.93;67.15;98416.70;105680;1277;22696;-79
2022/03/06 00:55:49;;;;;;;46.70;42.50;;;;;;;-0.95;67.07;98420.82;105956;1277;22662;-78
2022/03/06 00:58:18;;;;;;;48.50;44.20;;;;;;;-0.95;67.30;98419.92;105919;1277;22572;-77
2022/03/06 01:00:48;;;;;;;48.50;44.10;;;;;;;-0.90;67.33;98420.17;105887;1277;24237;-79
2022/03/06 01:03:18;;;;;;;49.20;44.70;;;;;;;-0.85;67.18;98415.39;105929;1277;25365;-78
2022/03/06 01:05:47;;;;;;;46.90;42.50;;;;;;;-0.84;67.26;98409.77;105857;1277;24281;-77
2022/03/06 01:08:15;;;;;;;44.90;40.60;;;;;;;-0.86;67.15;98412.63;105750;1277;26615;-77
2022/03/06 01:10:46;;;;;;;47.10;42.80;;;;;;;-0.90;67.53;98411.92;105725;1277;25439;-76
2022/03/06 01:13:15;;;;;;;50.50;45.70;;;;;;;-0.93;67.61;98413.70;105566;1280;22717;-76
2022/03/06 01:15:43;;;;;;;50.00;45.40;;;;;;;-0.94;67.49;98409.41;105731;1277;22557;-77
2022/03/06 01:18:12;;;;;;;65.20;58.30;;;;;;;-0.97;67.72;98404.10;105917;1278;22553;-77
2022/03/06 01:20:41;;;;;;;52.50;47.70;;;;;;;-0.99;67.63;98408.47;105914;1277;25550;-78
2022/03/06 01:23:09;;;;;;;48.50;43.80;;;;;;;-1.01;67.81;98411.03;105756;1278;24450;-77
2022/03/06 01:25:37;;;;;;;44.80;40.50;;;;;;;-1.02;67.63;98407.54;105796;1278;148559;-77
2022/03/06 01:28:06;;;;;;;65.60;59.70;;;;;;;-1.02;67.64;98411.45;105715;1277;22690;-78
2022/03/06 01:30:34;;;;;;;48.30;43.80;;;;;;;-0.99;67.96;98412.95;105626;1277;25426;-77
2022/03/06 01:33:02;;;;;;;49.90;45.30;;;;;;;-0.96;67.97;98410.61;105542;1277;22698;-77
2022/03/06 01:35:30;;;;;;;49.10;44.40;;;;;;;-0.94;68.14;98409.17;105708;1278;22729;-76
2022/03/06 01:37:58;;;;;;;53.40;48.40;;;;;;;-0.93;68.01;98412.63;105700;1278;22564;-76
2022/03/06 01:40:26;;;;;;;56.00;50.80;;;;;;;-0.96;68.15;98413.86;105723;1277;25461;-77
2022/03/06 01:42:54;;;;;;;56.40;51.20;;;;;;;-0.94;68.44;98409.74;105634;1276;25440;-78
2022/03/06 01:45:23;;;;;;;56.70;51.70;;;;;;;-0.92;68.41;98409.77;105759;1278;22543;-76
2022/03/06 01:47:55;;;;;;;54.90;49.70;;;;;;;-0.90;68.38;98409.48;105921;1278;22553;-77
2022/03/06 01:50:30;;;;;;;55.60;50.20;;;;;;;-0.92;68.32;98410.72;105743;1278;25336;-77
2022/03/06 01:53:00;;;;;;;45.50;41.30;;;;;;;-0.94;68.13;98407.05;105721;1277;25351;-78
2022/03/06 01:55:29;;;;;;;48.70;44.20;;;;;;;-0.90;68.21;98405.89;105917;1277;24240;-77
2022/03/06 01:58:01;;;;;;;57.00;51.90;;;;;;;-0.89;68.25;98408.33;105913;1278;22704;-78
2022/03/06 02:00:35;;;;;;;50.60;45.80;;;;;;;-0.88;68.41;98407.08;105902;1277;22738;-77
2022/03/06 02:03:04;;;;;;;55.80;50.30;;;;;;;-0.89;68.54;98410.16;105568;1278;22565;-76
2022/03/06 02:05:33;;;;;;;56.90;51.70;;;;;;;-0.90;68.52;98409.04;105740;1278;22558;-77
2022/03/06 02:08:01;;;;;;;52.80;47.60;;;;;;;-0.90;68.52;98412.45;105714;1277;22559;-76
2022/03/06 02:10:30;;;;;;;53.70;48.90;;;;;;;-0.92;68.50;98413.23;105729;1278;22581;-77
2022/03/06 02:12:58;;;;;;;51.80;47.10;;;;;;;-0.95;68.52;98415.04;105877;1278;23736;-77
2022/03/06 02:15:26;;;;;;;53.50;48.30;;;;;;;-1.00;68.54;98412.75;105780;1278;22658;-76
2022/03/06 02:17:54;;;;;;;51.80;46.90;;;;;;;-1.04;68.51;98413.05;105596;1277;25509;-75
2022/03/06 02:20:24;;;;;;;49.90;45.30;;;;;;;-1.03;68.55;98408.56;105590;1278;25383;-77
2022/03/06 02:22:55;;;;;;;52.10;47.50;;;;;;;-1.01;68.85;98409.69;105931;1277;24685;-77
2022/03/06 02:25:32;;;;;;;50.40;45.90;;;;;;;-0.99;68.87;98402.28;105432;1280;22672;-76
2022/03/06 02:28:06;;;;;;;47.40;43.20;;;;;;;-0.97;69.06;98396.41;105806;1278;22557;-78
2022/03/06 02:30:37;;;;;;;53.20;48.60;;;;;;;-0.97;68.97;98395.89;105890;1277;22773;-77
2022/03/06 02:33:08;;;;;;;53.40;48.70;;;;;;;-1.00;68.93;98397.00;105902;1278;22564;-77
2022/03/06 02:35:36;;;;;;;55.80;51.00;;;;;;;-1.01;69.00;98398.34;105858;1277;25375;-77
2022/03/06 02:38:05;;;;;;;54.80;49.90;;;;;;;-1.00;69.08;98394.06;105671;1278;24307;-77
2022/03/06 02:40:41;;;;;;;55.50;50.50;;;;;;;-1.01;69.29;98391.26;105749;1277;24397;-77
2022/03/06 02:43:11;;;;;;;50.30;45.60;;;;;;;-1.00;69.22;98390.68;105624;1278;25395;-77
2022/03/06 02:45:40;;;;;;;47.60;43.40;;;;;;;-0.98;69.10;98393.31;105917;1280;23784;-77
2022/03/06 02:48:09;;;;;;;50.30;45.80;;;;;;;-0.97;69.01;98391.61;105700;1278;22665;-77
2022/03/06 02:50:43;;;;;;;53.30;48.40;;;;;;;-0.99;68.98;98389.18;105652;1278;22710;-76
2022/03/06 02:53:12;;;;;;;51.50;46.90;;;;;;;-1.02;69.19;98390.83;105658;1277;25345;-77
2022/03/06 02:55:42;;;;;;;60.10;54.40;;;;;;;-1.03;69.35;98386.79;105749;1278;25281;-77
2022/03/06 02:58:10;;;;;;;52.80;48.10;;;;;;;-1.03;69.39;98386.18;105983;1277;22613;-77
2022/03/06 03:00:39;;;;;;;49.90;45.60;;;;;;;-1.03;69.45;98385.75;105979;1277;22592;-77
2022/03/06 03:03:07;;;;;;;69.00;63.10;;;;;;;-1.02;69.49;98386.83;105971;1277;22685;-77
2022/03/06 03:05:35;;;;;;;51.90;47.30;;;;;;;-1.04;69.54;98386.60;105734;1278;22553;-77
2022/03/06 03:08:04;;;;;;;43.20;39.30;;;;;;;-1.07;69.28;98388.33;105975;1277;24032;-77
2022/03/06 03:10:32;;;;;;;42.90;38.80;;;;;;;-1.10;69.32;98384.63;105991;1278;24503;-77
2022/03/06 03:13:00;;;;;;;43.80;40.00;;;;;;;-1.11;69.33;98386.03;105638;1278;24335;-77
2022/03/06 03:15:28;;;;;;;44.60;40.70;;;;;;;-1.10;69.37;98388.55;105966;1278;22682;-76
2022/03/06 03:17:56;;;;;;;41.80;38.10;;;;;;;-1.10;69.43;98385.37;105696;1279;25523;-77
2022/03/06 03:20:24;;;;;;;45.30;41.20;;;;;;;-1.10;69.50;98389.86;105496;1279;24227;-77
2022/03/06 03:22:52;;;;;;;43.00;39.20;;;;;;;-1.11;69.60;98392.95;105948;1277;23947;-77
2022/03/06 03:25:20;;;;;;;40.60;37.00;;;;;;;-1.13;69.50;98391.45;105454;1278;24237;-77
2022/03/06 03:27:48;;;;;;;42.00;38.40;;;;;;;-1.14;69.57;98393.81;105687;1280;22540;-77
2022/03/06 03:30:16;;;;;;;42.40;38.50;;;;;;;-1.17;69.50;98393.06;105664;1278;25436;-79
2022/03/06 03:32:44;;;;;;;47.50;43.10;;;;;;;-1.19;69.49;98396.96;105843;1277;25306;-77
2022/03/06 03:35:11;;;;;;;40.70;37.00;;;;;;;-1.21;69.47;98394.36;105632;1278;23430;-76
2022/03/06 03:37:39;;;;;;;42.90;39.10;;;;;;;-1.20;69.50;98395.14;105920;1278;23359;-78
2022/03/06 03:40:08;;;;;;;41.30;37.90;;;;;;;-1.15;69.62;98395.69;106257;1277;22571;-80
2022/03/06 03:42:36;;;;;;;40.30;36.80;;;;;;;-1.09;69.47;98395.70;106049;1277;25575;-77
2022/03/06 03:45:05;;;;;;;39.30;35.90;;;;;;;-1.06;69.58;98387.59;106144;1279;22501;-79
2022/03/06 03:47:34;;;;;;;41.30;37.70;;;;;;;-1.02;69.69;98388.83;105820;1280;22557;-79
2022/03/06 03:50:04;;;;;;;44.60;40.70;;;;;;;-0.99;69.70;98389.66;105838;1280;22559;-76
2022/03/06 03:52:35;;;;;;;44.70;40.90;;;;;;;-0.98;69.74;98387.05;105677;1280;23349;-77
2022/03/06 03:55:04;;;;;;;43.40;39.50;;;;;;;-0.95;69.87;98390.21;105966;1280;22580;-78
2022/03/06 03:58:35;;;;;;;40.90;37.40;;;;;;;-0.93;69.75;98392.56;106150;1279;23311;-77
2022/03/06 04:01:45;;;;;;;44.40;40.40;;;;;;;-0.94;69.58;98394.89;106098;1280;22672;-79
2022/03/06 04:05:33;;;;;;;46.80;42.60;;;;;;;-0.96;69.46;98398.27;105795;1280;22554;-78
2022/03/06 04:09:04;;;;;;;49.10;44.90;;;;;;;-1.00;69.55;98398.02;105674;1280;22544;-77
2022/03/06 04:12:52;;;;;;;45.50;41.30;;;;;;;-1.06;69.32;98400.12;106569;1279;25339;-78
2022/03/06 04:16:01;;;;;;;41.50;37.70;;;;;;;-1.02;69.52;98407.46;105634;1285;22703;-78
2022/03/06 04:18:29;;;;;;;42.00;38.30;;;;;;;-0.95;69.69;98402.42;106223;1285;22583;-78
2022/03/06 04:21:01;;;;;;;46.90;42.70;;;;;;;-0.88;69.67;98402.59;106731;1285;22756;-78
2022/03/06 04:23:29;;;;;;;51.00;46.70;;;;;;;-0.84;69.82;98402.98;106817;1284;22591;-80
2022/03/06 04:25:57;;;;;;;48.80;44.60;;;;;;;-0.82;69.94;98402.64;105814;1286;22872;-77
2022/03/06 04:28:25;;;;;;;47.30;43.20;;;;;;;-0.81;69.92;98403.92;105677;1286;23379;-74
2022/03/06 04:30:55;;;;;;;44.20;40.30;;;;;;;-0.80;69.96;98406.02;105290;1286;25906;-79
2022/03/06 04:33:23;;;;;;;48.50;44.40;;;;;;;-0.79;70.03;98409.78;105588;1286;24297;-78
2022/03/06 04:35:54;;;;;;;47.30;43.10;;;;;;;-0.78;70.02;98412.39;105451;1286;23812;-77
2022/03/06 04:38:22;;;;;;;51.00;46.60;;;;;;;-0.78;69.98;98411.86;105490;1286;22544;-78
2022/03/06 04:40:49;;;;;;;50.10;45.90;;;;;;;-0.79;69.96;98416.87;105461;1286;22798;-79
2022/03/06 04:43:21;;;;;;;45.60;41.60;;;;;;;-0.81;69.79;98414.36;105459;1286;24104;-79
2022/03/06 04:45:48;;;;;;;43.20;39.30;;;;;;;-0.82;69.83;98415.91;105338;1286;22706;-77
2022/03/06 04:48:16;;;;;;;42.50;38.70;;;;;;;-0.79;69.92;98414.27;105258;1286;24447;-79
2022/03/06 04:50:44;;;;;;;41.80;38.30;;;;;;;-0.76;69.83;98415.91;105400;1286;23513;-78
2022/03/06 04:53:13;;;;;;;41.20;37.70;;;;;;;-0.75;69.86;98419.33;105779;1280;22570;-78
2022/03/06 04:55:41;;;;;;;45.40;41.40;;;;;;;-0.76;69.89;98414.13;105951;1279;22553;-78
2022/03/06 04:58:09;;;;;;;49.90;45.60;;;;;;;-0.78;69.88;98416.38;105807;1280;25108;-79
2022/03/06 05:00:37;;;;;;;45.00;40.90;;;;;;;-0.79;69.89;98414.48;105960;1280;22572;-79
2022/03/06 05:03:05;;;;;;;42.50;38.70;;;;;;;-0.81;69.95;98417.33;105808;1279;22551;-78
2022/03/06 05:05:33;;;;;;;40.30;36.80;;;;;;;-0.82;70.00;98416.03;105881;1280;22609;-78
2022/03/06 05:08:01;;;;;;;43.70;40.00;;;;;;;-0.83;69.90;98417.45;105913;1280;25574;-77
2022/03/06 05:10:29;;;;;;;45.60;41.80;;;;;;;-0.85;69.81;98416.61;105681;1280;23485;-77
2022/03/06 05:12:57;;;;;;;39.70;36.20;;;;;;;-0.87;69.87;98418.74;105746;1280;26632;-77
2022/03/06 05:15:25;;;;;;;37.60;34.30;;;;;;;-0.93;69.69;98424.79;105713;1280;23907;-76
2022/03/06 05:17:53;;;;;;;36.30;33.20;;;;;;;-1.00;69.61;98424.98;105926;1280;22566;-77
2022/03/06 05:20:22;;;;;;;39.80;36.30;;;;;;;-1.03;69.56;98424.93;105946;1280;22628;-76
2022/03/06 05:22:50;;;;;;;43.40;39.60;;;;;;;-1.06;69.56;98426.45;105737;1280;26613;-76
2022/03/06 05:25:18;;;;;;;33.30;30.30;;;;;;;-1.07;69.63;98426.52;105975;1280;23914;-77
2022/03/06 05:27:46;;;;;;;38.80;35.40;;;;;;;-1.05;69.45;98426.70;105956;1280;22563;-77
2022/03/06 05:30:14;;;;;;;34.30;31.10;;;;;;;-1.04;69.46;98426.30;105828;1280;23411;-77
2022/03/06 05:32:43;;;;;;;27.30;24.70;;;;;;;-1.05;69.44;98424.04;105718;1280;22546;-77
2022/03/06 05:35:11;;;;;;;33.10;30.20;;;;;;;-1.10;69.39;98423.58;105945;1280;25470;-78
2022/03/06 05:37:39;;;;;;;30.30;27.70;;;;;;;-1.13;69.52;98422.23;105672;1280;22702;-80
2022/03/06 05:40:08;;;;;;;32.50;29.60;;;;;;;-1.15;69.33;98424.70;105962;1280;22596;-77
2022/03/06 05:42:36;;;;;;;32.40;29.40;;;;;;;-1.18;69.35;98423.49;105977;1280;23984;-77
2022/03/06 05:45:04;;;;;;;34.10;30.80;;;;;;;-1.20;69.31;98424.31;105998;1280;25538;-78
2022/03/06 05:47:32;;;;;;;35.90;32.80;;;;;;;-1.22;69.41;98422.04;105968;1280;22696;-77
2022/03/06 05:50:04;;;;;;;40.50;36.60;;;;;;;-1.23;69.35;98420.30;106002;1280;22761;-79
2022/03/06 05:52:33;;;;;;;37.30;33.90;;;;;;;-1.26;69.31;98419.34;106052;1277;25436;-79
2022/03/06 05:55:03;;;;;;;38.00;34.40;;;;;;;-1.30;69.16;98422.84;105912;1278;25477;-79
2022/03/06 05:57:30;;;;;;;31.80;28.70;;;;;;;-1.32;69.11;98417.96;105774;1280;26825;-78
2022/03/06 05:59:58;;;;;;;34.00;31.00;;;;;;;-1.33;69.22;98419.44;106024;1280;22715;-78
2022/03/06 06:02:26;;;;;;;27.70;25.30;;;;;;;-1.33;69.06;98419.27;105954;1280;22554;-79
2022/03/06 06:04:54;;;;;;;23.50;21.40;;;;;;;-1.34;69.00;98420.66;105938;1280;23477;-78
2022/03/06 06:07:25;;;;;;;15.60;14.20;;;;;;;-1.36;68.76;98418.66;105798;1280;22720;-78
2022/03/06 06:09:53;;;;;;;13.80;12.60;;;;;;;-1.38;68.59;98414.10;105923;1280;25329;-78
2022/03/06 06:12:21;;;;;;;14.40;13.10;;;;;;;-1.40;68.35;98420.48;106018;1280;22559;-78
2022/03/06 06:14:49;;;;;;;15.60;14.10;;;;;;;-1.41;68.22;98419.59;105852;1280;24386;-80
2022/03/06 06:17:16;;;;;;;11.70;10.40;;;;;;;-1.43;68.04;98418.90;105947;1280;22687;-78
2022/03/06 06:19:44;;;;;;;13.90;12.60;;;;;;;-1.43;67.76;98415.40;105921;1280;22682;-78
2022/03/06 06:22:12;;;;;;;11.30;10.10;;;;;;;-1.44;67.25;98417.89;105987;1279;22698;-79
2022/03/06 06:24:41;;;;;;;10.90;9.80;;;;;;;-1.46;67.31;98416.47;105681;1280;25437;-78
2022/03/06 06:27:10;;;;;;;13.00;11.80;;;;;;;-1.47;67.26;98413.27;105909;1280;22586;-78
2022/03/06 06:29:38;;;;;;;13.70;12.50;;;;;;;-1.41;67.19;98416.42;105823;1280;22745;-78
2022/03/06 06:32:07;;;;;;;14.50;13.30;;;;;;;-1.38;66.88;98420.07;105966;1280;24384;-78
2022/03/06 06:34:34;;;;;;;12.60;11.50;;;;;;;-1.36;66.98;98423.48;105811;1279;22990;-78
2022/03/06 06:37:03;;;;;;;13.00;11.80;;;;;;;-1.34;66.63;98422.91;105741;1279;22702;-78
2022/03/06 06:39:32;;;;;;;13.40;12.20;;;;;;;-1.33;66.75;98421.83;105653;1280;22727;-78
2022/03/06 06:42:01;;;;;;;13.40;12.30;;;;;;;-1.32;66.48;98425.08;105504;1279;22549;-78
2022/03/06 06:44:30;;;;;;;14.10;12.90;;;;;;;-1.30;66.67;98428.14;105884;1280;24398;-80
2022/03/06 06:46:59;;;;;;;11.40;10.20;;;;;;;-1.27;66.36;98427.47;105885;1280;25683;-79
2022/03/06 06:49:28;;;;;;;12.20;11.00;;;;;;;-1.25;66.17;98428.80;105960;1280;25353;-78
2022/03/06 06:51:56;;;;;;;14.20;12.90;;;;;;;-1.23;66.10;98429.78;105973;1280;24323;-78
2022/03/06 06:54:24;;;;;;;12.20;11.10;;;;;;;-1.22;66.25;98435.63;105942;1280;26665;-78
2022/03/06 06:56:52;;;;;;;10.40;9.50;;;;;;;-1.21;66.10;98438.91;105883;1280;24271;-79
2022/03/06 06:59:20;;;;;;;15.20;13.70;;;;;;;-1.18;66.19;98439.20;105763;1280;22958;-78
2022/03/06 07:01:49;;;;;;;23.00;21.00;;;;;;;-1.16;65.98;98435.88;105897;1280;22557;-78
2022/03/06 07:04:17;;;;;;;15.30;13.80;;;;;;;-1.13;65.63;98435.88;105971;1280;24281;-79
2022/03/06 07:06:45;;;;;;;22.00;20.10;;;;;;;-1.12;65.41;98437.86;105645;1280;26550;-78
2022/03/06 07:09:16;;;;;;;15.20;13.90;;;;;;;-1.13;65.20;98434.81;105847;1280;22551;-77
2022/03/06 07:11:43;;;;;;;14.90;13.60;;;;;;;-1.15;65.28;98439.42;105923;1278;24444;-78
2022/03/06 07:14:11;;;;;;;11.40;10.30;;;;;;;-1.13;65.52;98432.24;105970;1280;24250;-78
2022/03/06 07:16:43;;;;;;;12.30;11.10;;;;;;;-1.11;65.15;98434.65;105953;1280;22732;-79
2022/03/06 07:19:12;;;;;;;14.30;13.00;;;;;;;-1.12;65.00;98438.67;105908;1280;24316;-78
2022/03/06 07:21:39;;;;;;;12.50;11.40;;;;;;;-1.13;65.04;98438.27;105821;1280;24279;-77
2022/03/06 07:24:07;;;;;;;12.40;11.30;;;;;;;-1.12;64.69;98441.97;105771;1280;22616;-77
2022/03/06 07:26:35;;;;;;;12.80;11.50;;;;;;;-1.11;64.86;98437.95;105711;1280;22678;-79
2022/03/06 07:29:06;;;;;;;14.10;12.80;;;;;;;-1.10;64.75;98438.58;105935;1279;22862;-78
2022/03/06 07:31:34;;;;;;;13.60;12.20;;;;;;;-1.08;64.67;98437.64;105699;1280;23402;-79
2022/03/06 07:34:04;;;;;;;14.60;13.20;;;;;;;-1.05;64.68;98440.61;105907;1280;23295;-79
2022/03/06 07:36:32;;;;;;;16.20;14.60;;;;;;;-1.03;64.66;98439.79;105820;1280;24511;-78
2022/03/06 07:39:00;;;;;;;16.30;14.70;;;;;;;-0.99;64.69;98440.29;105799;1280;22540;-77
2022/03/06 07:41:28;;;;;;;17.30;15.50;;;;;;;-0.97;64.58;98440.08;105840;1280;22672;-78
2022/03/06 07:43:57;;;;;;;16.20;14.60;;;;;;;-0.93;64.53;98442.02;105924;1279;25259;-78
2022/03/06 07:46:25;;;;;;;13.70;12.30;;;;;;;-0.89;64.46;98442.80;105810;1280;22550;-79
2022/03/06 07:48:55;;;;;;;13.50;12.30;;;;;;;-0.90;64.10;98441.23;105932;1280;24444;-78
2022/03/06 07:51:23;;;;;;;14.20;12.90;;;;;;;-0.92;63.96;98437.20;105842;1280;23798;-79
2022/03/06 07:53:51;;;;;;;17.30;15.60;;;;;;;-0.94;63.84;98434.45;105813;1280;23993;-78
2022/03/06 07:56:19;;;;;;;18.20;16.30;;;;;;;-0.91;63.90;98434.39;105730;1280;24362;-78
2022/03/06 07:58:47;;;;;;;15.70;14.30;;;;;;;-0.88;63.87;98430.88;105694;1280;22704;-79
2022/03/06 08:01:15;;;;;;;15.70;14.30;;;;;;;-0.88;63.53;98428.88;105397;1282;24323;-80
2022/03/06 08:03:43;;;;;;;16.00;14.50;;;;;;;-0.87;63.53;98426.35;105844;1279;22939;-78
2022/03/06 08:06:11;;;;;;;15.60;14.20;;;;;;;-0.88;63.45;98426.44;105701;1280;22543;-78
2022/03/06 08:08:38;;;;;;;14.90;13.30;;;;;;;-0.88;63.27;98427.45;105950;1280;25524;-78
2022/03/06 08:11:06;;;;;;;17.00;15.20;;;;;;;-0.89;63.35;98428.67;105886;1280;25467;-79
2022/03/06 08:13:34;;;;;;;16.80;15.20;;;;;;;-0.87;63.26;98425.14;105619;1280;22621;-79
2022/03/06 08:16:05;;;;;;;17.40;15.80;;;;;;;-0.86;63.18;98431.60;105916;1280;24410;-77
2022/03/06 08:18:33;;;;;;;17.60;15.60;;;;;;;-0.85;63.04;98428.61;105970;1280;23391;-76
2022/03/06 08:21:01;;;;;;;16.40;14.90;;;;;;;-0.82;63.09;98425.48;105954;1280;24268;-79
2022/03/06 08:23:29;;;;;;;18.00;16.30;;;;;;;-0.79;63.32;98426.80;105924;1280;25236;-78
2022/03/06 08:25:57;;;;;;;19.40;17.60;;;;;;;-0.75;63.40;98426.40;105671;1280;22697;-77
2022/03/06 08:28:25;;;;;;;19.10;17.30;;;;;;;-0.71;63.07;98422.96;105961;1280;24114;-77
2022/03/06 08:30:53;;;;;;;23.60;21.30;;;;;;;-0.69;62.87;98422.66;105789;1280;22631;-78
2022/03/06 08:33:21;;;;;;;19.80;17.90;;;;;;;-0.67;62.89;98420.74;105656;1280;22837;-77
2022/03/06 08:35:48;;;;;;;18.00;16.20;;;;;;;-0.68;62.83;98422.38;105859;1280;22559;-78
2022/03/06 08:38:17;;;;;;;23.60;21.40;;;;;;;-0.69;62.77;98419.31;105957;1280;24193;-78
2022/03/06 08:40:45;;;;;;;20.70;18.70;;;;;;;-0.67;62.78;98417.36;105953;1280;22693;-77
2022/03/06 08:43:13;;;;;;;16.20;14.80;;;;;;;-0.65;62.86;98420.44;105722;1280;22584;-79
2022/03/06 08:45:41;;;;;;;15.90;14.40;;;;;;;-0.65;62.75;98425.94;105964;1280;24247;-81
2022/03/06 08:48:09;;;;;;;14.80;13.40;;;;;;;-0.66;62.63;98422.11;105569;1280;23218;-79
2022/03/06 08:50:36;;;;;;;16.40;14.80;;;;;;;-0.66;62.48;98426.23;105736;1280;24509;-78
2022/03/06 08:53:04;;;;;;;16.40;14.90;;;;;;;-0.68;62.57;98423.64;105689;1280;22691;-78
2022/03/06 08:55:32;;;;;;;16.90;15.20;;;;;;;-0.69;62.41;98421.92;105837;1279;22691;-77
2022/03/06 08:58:01;;;;;;;15.10;13.70;;;;;;;-0.68;62.56;98420.63;105994;1280;22534;-78
2022/03/06 09:00:28;;;;;;;16.40;14.80;;;;;;;-0.70;62.45;98413.02;105983;1280;23970;-79
2022/03/06 09:02:56;;;;;;;14.80;13.40;;;;;;;-0.69;62.33;98418.80;105762;1280;22556;-77
2022/03/06 09:05:25;;;;;;;13.40;12.10;;;;;;;-0.71;62.09;98420.27;105853;1280;22688;-78
2022/03/06 09:07:53;;;;;;;14.10;12.60;;;;;;;-0.73;61.96;98424.44;105988;1280;25302;-79
2022/03/06 09:10:20;;;;;;;13.80;12.50;;;;;;;-0.72;62.07;98422.12;105953;1279;25435;-79
2022/03/06 09:12:49;;;;;;;14.40;13.00;;;;;;;-0.74;61.91;98421.80;105896;1280;22837;-79
2022/03/06 09:15:17;;;;;;;14.30;12.90;;;;;;;-0.74;62.04;98420.52;106010;1280;25474;-78
2022/03/06 09:17:45;;;;;;;15.60;14.00;;;;;;;-0.72;61.77;98421.17;105887;1280;22731;-78
2022/03/06 09:20:12;;;;;;;15.60;14.10;;;;;;;-0.73;61.62;98423.05;105801;1280;25356;-79
2022/03/06 09:22:40;;;;;;;14.60;13.20;;;;;;;-0.75;61.50;98424.73;105915;1280;25076;-79
2022/03/06 09:25:08;;;;;;;14.30;12.80;;;;;;;-0.75;61.49;98422.30;105942;1280;25365;-78
2022/03/06 09:27:36;;;;;;;15.60;14.10;;;;;;;-0.74;61.39;98426.55;105777;1280;22691;-78
2022/03/06 09:30:06;;;;;;;14.30;13.00;;;;;;;-0.72;61.37;98427.20;105956;1280;22704;-78
2022/03/06 09:32:34;;;;;;;14.70;13.20;;;;;;;-0.69;61.39;98426.98;105978;1280;26632;-78
2022/03/06 09:35:02;;;;;;;15.80;14.30;;;;;;;-0.66;61.22;98422.48;105809;1280;22702;-79
2022/03/06 09:37:30;;;;;;;15.60;14.10;;;;;;;-0.61;61.50;98423.39;105692;1280;24231;-78
2022/03/06 09:39:58;;;;;;;19.60;17.80;;;;;;;-0.56;61.28;98424.10;105789;1278;24414;-78
2022/03/06 09:42:26;;;;;;;14.60;13.30;;;;;;;-0.55;61.03;98425.59;105652;1280;24311;-78
2022/03/06 09:44:54;;;;;;;14.40;13.20;;;;;;;-0.54;60.90;98423.79;105555;1280;22625;-78
2022/03/06 09:47:24;;;;;;;14.30;13.00;;;;;;;-0.49;61.19;98422.95;105891;1280;25457;-77
2022/03/06 09:49:52;;;;;;;14.00;12.70;;;;;;;-0.44;61.01;98423.68;105893;1279;22768;-78
2022/03/06 09:52:20;;;;;;;13.10;12.00;;;;;;;-0.41;60.84;98426.55;105791;1280;22553;-78
2022/03/06 09:54:48;;;;;;;14.00;12.60;;;;;;;-0.37;60.73;98423.06;105891;1280;22602;-78
2022/03/06 09:57:19;;;;;;;12.50;11.30;;;;;;;-0.37;60.61;98421.68;105921;1280;22554;-79
2022/03/06 09:59:47;;;;;;;14.70;13.10;;;;;;;-0.34;60.81;98417.86;105951;1280;24336;-80
2022/03/06 10:02:16;;;;;;;12.00;10.90;;;;;;;-0.30;60.70;98422.96;105935;1279;22860;-78
2022/03/06 10:04:46;;;;;;;12.50;11.00;;;;;;;-0.32;60.05;98423.55;106019;1280;23454;-78
2022/03/06 10:07:16;;;;;;;11.70;10.40;;;;;;;-0.36;60.16;98421.27;105837;1280;24091;-78
2022/03/06 10:09:55;;;;;;;10.90;9.90;;;;;;;-0.34;59.80;98420.20;105890;1280;24330;-78
2022/03/06 10:12:27;;;;;;;12.30;11.00;;;;;;;-0.33;59.96;98420.55;105995;1280;22535;-80
2022/03/06 10:14:57;;;;;;;12.80;11.60;;;;;;;-0.32;60.08;98424.78;105916;1280;22674;-78
2022/03/06 10:17:28;;;;;;;13.40;12.00;;;;;;;-0.30;59.85;98422.76;105983;1280;24221;-79
2022/03/06 10:20:03;;;;;;;14.10;12.80;;;;;;;-0.27;59.98;98422.54;105971;1279;25347;-77
2022/03/06 10:22:33;;;;;;;18.90;17.10;;;;;;;-0.22;59.53;98423.72;105973;1280;25337;-79
2022/03/06 10:25:07;;;;;;;16.70;15.20;;;;;;;-0.18;59.69;98421.61;105999;1280;25441;-79
2022/03/06 10:28:02;;;;;;;12.20;10.90;;;;;;;-0.14;59.64;98418.77;105962;1280;24458;-78
2022/03/06 10:30:41;;;;;;;10.70;9.70;;;;;;;-0.12;59.44;98421.64;105736;1281;22711;-78
2022/03/06 10:33:17;;;;;;;13.30;12.10;;;;;;;-0.12;59.50;98411.70;105990;1280;22589;-78
2022/03/06 10:35:48;;;;;;;14.80;13.30;;;;;;;-0.03;59.67;98415.36;105761;1280;25499;-78
2022/03/06 10:38:21;;;;;;;15.90;14.30;;;;;;;0.02;59.50;98415.83;105979;1280;23116;-79
2022/03/06 10:40:50;;;;;;;16.60;15.10;;;;;;;-0.03;59.06;98409.86;105801;1280;25379;-78
2022/03/06 10:43:23;;;;;;;14.50;13.20;;;;;;;-0.06;59.18;98413.04;105974;1279;22554;-79
2022/03/06 10:46:04;;;;;;;14.10;12.80;;;;;;;-0.08;59.01;98413.46;105897;1280;25341;-79
2022/03/06 10:48:33;;;;;;;12.10;11.00;;;;;;;-0.08;59.18;98407.84;105711;1281;23230;-78
2022/03/06 10:51:05;;;;;;;11.80;10.80;;;;;;;-0.05;59.13;98409.73;105799;1279;23152;-78
2022/03/06 10:53:33;;;;;;;14.80;13.30;;;;;;;-0.03;59.14;98406.92;105764;1280;25404;-77
2022/03/06 10:56:12;;;;;;;20.40;18.20;;;;;;;-0.03;58.73;98404.61;105945;1280;22736;-79
2022/03/06 10:58:42;;;;;;;22.60;19.10;;;;;;;-0.05;58.89;98403.07;105749;1281;25348;-78
2022/03/06 11:01:28;;;;;;;17.40;15.70;;;;;;;-0.07;58.72;98399.67;105932;1280;22664;-78
2022/03/06 11:04:02;;;;;;;13.40;12.10;;;;;;;-0.07;58.93;98401.38;105720;1280;24432;-77
2022/03/06 11:06:41;;;;;;;13.40;12.30;;;;;;;-0.05;58.78;98397.13;106006;1280;22512;-77
2022/03/06 11:09:11;;;;;;;12.50;11.30;;;;;;;-0.05;58.67;98395.83;105993;1280;25437;-78
2022/03/06 11:11:41;;;;;;;18.10;12.30;;;;;;;-0.02;58.78;98394.58;106012;1280;25329;-77
2022/03/06 11:14:11;;;;;;;16.70;10.90;;;;;;;0.02;58.74;98388.39;105991;1280;27025;-77
2022/03/06 11:16:41;;;;;;;13.50;12.20;;;;;;;0.06;58.74;98386.39;106009;1280;22741;-77
2022/03/06 11:19:10;;;;;;;13.90;11.90;;;;;;;0.10;58.51;98385.77;106052;1280;23925;-78
2022/03/06 11:21:41;;;;;;;17.00;15.40;;;;;;;0.12;58.52;98382.20;105900;1280;22630;-78
2022/03/06 11:24:20;;;;;;;14.50;12.20;;;;;;;0.12;58.43;98379.52;105744;1279;24517;-77